Time;durP1;ratioP1;P1;durP2;ratioP2;P2;SDS_P1;SDS_P2;PMS_P1;PMS_P2;Temp;Humidity;BMP_temperature;BMP_pressure;BME280_temperature;BME280_humidity;BME280_pressure;Samples;Min_cycle;Max_cycle;Signal;HPM_P1;HPM_P2
2022/07/21 00:01:13;;;;;;;6.45;3.60;;;;;;;18.97;86.21;100482.50;5016229;28;20049;-79
2022/07/21 00:03:38;;;;;;;;;;;;;;;18.88;86.59;100489.13;5019189;28;20041;-80
2022/07/21 00:06:04;;;;;;;8.68;4.25;;;;;;;18.80;87.98;100495.75;5019533;28;19968;-80
2022/07/21 00:08:29;;;;;;;;;;;;;;;18.61;88.97;100487.69;5013054;28;20077;-81
2022/07/21 00:10:55;;;;;;;8.43;4.45;;;;;;;18.53;89.60;100486.03;5011637;28;20313;-81
2022/07/21 00:13:20;;;;;;;;;;;;;;;18.58;89.97;100483.72;5011346;28;20037;-81
2022/07/21 00:15:46;;;;;;;9.60;4.90;;;;;;;18.54;90.64;100471.06;5010706;28;20352;-80
2022/07/21 00:18:12;;;;;;;9.73;5.00;;;;;;;18.36;90.99;100472.88;5009249;28;20381;-79
2022/07/21 00:20:38;;;;;;;8.27;4.32;;;;;;;18.26;91.80;100469.63;5010503;28;20022;-79
2022/07/21 00:23:03;;;;;;;;;;;;;;;18.26;92.08;100461.34;5010843;28;20030;-80
2022/07/21 00:25:29;;;;;;;7.60;4.23;;;;;;;18.15;91.60;100468.72;5010659;28;19909;-81
2022/07/21 00:27:54;;;;;;;;;;;;;;;18.12;90.98;100461.19;5010988;28;20320;-81
2022/07/21 00:30:21;;;;;;;7.85;4.47;;;;;;;18.12;91.20;100450.16;5010533;28;19917;-81
2022/07/21 00:32:46;;;;;;;7.97;4.00;;;;;;;18.10;90.90;100449.75;5010247;28;20068;-80
2022/07/21 00:35:12;;;;;;;;;;;;;;;18.08;90.76;100440.28;5010600;28;20064;-81
2022/07/21 00:37:41;;;;;;;7.95;3.85;;;;;;;18.27;90.83;100429.84;5010265;28;19929;-80
2022/07/21 00:40:09;;;;;;;8.93;4.82;;;;;;;18.60;90.20;100433.69;5010204;28;20111;-81
2022/07/21 00:42:35;;;;;;;10.13;4.63;;;;;;;18.80;88.64;100443.34;5008445;28;20026;-80
2022/07/21 00:45:01;;;;;;;7.60;3.97;;;;;;;18.40;89.25;100441.41;5010286;28;20058;-80
2022/07/21 00:47:29;;;;;;;7.72;4.35;;;;;;;18.28;90.21;100442.47;5009799;28;20033;-81
2022/07/21 00:49:55;;;;;;;7.80;4.43;;;;;;;18.28;90.20;100449.94;5009107;28;20326;-80
2022/07/21 00:52:21;;;;;;;9.07;4.35;;;;;;;18.24;91.33;100449.13;5010248;28;20033;-80
2022/07/21 00:54:46;;;;;;;;;;;;;;;18.21;91.77;100450.66;5010424;28;20030;-79
2022/07/21 00:57:15;;;;;;;8.05;4.60;;;;;;;18.23;90.60;100464.06;5009719;28;19913;-80
2022/07/21 00:59:41;;;;;;;7.57;4.45;;;;;;;18.27;91.05;100460.16;5009837;28;20426;-80
2022/07/21 01:02:06;;;;;;;;;;;;;;;18.23;91.21;100459.34;5010754;28;20151;-81
2022/07/21 01:04:32;;;;;;;7.57;4.40;;;;;;;18.40;91.16;100446.13;5009865;28;19910;-80
2022/07/21 01:07:00;;;;;;;;;;;;;;;18.29;91.12;100452.31;5010303;28;20034;-81
2022/07/21 01:09:25;;;;;;;;;;;;;;;18.23;91.51;100448.31;5010486;28;19932;-81
2022/07/21 01:11:50;;;;;;;9.23;4.37;;;;;;;18.21;91.87;100455.38;5010185;28;20344;-81
2022/07/21 01:14:16;;;;;;;;;;;;;;;18.21;90.73;100469.97;5010635;28;20253;-80
2022/07/21 01:16:43;;;;;;;11.32;5.10;;;;;;;18.10;91.20;100460.78;5009760;28;19943;-80
2022/07/21 01:19:08;;;;;;;10.32;5.25;;;;;;;18.06;91.31;100465.47;5010256;28;20037;-80
2022/07/21 01:21:35;;;;;;;;;;;;;;;18.04;91.43;100460.34;5010154;28;20042;-80
2022/07/21 01:24:01;;;;;;;8.57;4.67;;;;;;;18.09;91.96;100455.66;5009735;28;19962;-80
2022/07/21 01:26:27;;;;;;;8.90;4.97;;;;;;;18.05;91.98;100458.38;5009649;28;20265;-80
2022/07/21 01:28:53;;;;;;;8.02;4.95;;;;;;;18.11;91.89;100461.56;5009836;28;20036;-80
2022/07/21 01:31:18;;;;;;;;;;;;;;;18.16;92.21;100469.50;5010201;28;20030;-80
2022/07/21 01:33:44;;;;;;;9.63;4.90;;;;;;;18.01;92.16;100479.59;5009682;28;20323;-80
2022/07/21 01:36:09;;;;;;;;;;;;;;;17.86;93.30;100491.59;5009977;28;20038;-82
2022/07/21 01:41:34;;;;;;;8.70;4.45;;;;;;;17.58;94.64;100495.53;5009218;28;20045;-77
2022/07/21 01:44:03;;;;;;;10.25;4.80;;;;;;;17.44;94.75;100493.38;5009414;28;20106;-78
2022/07/21 01:46:30;;;;;;;9.13;4.30;;;;;;;17.30;94.84;100487.69;5009216;28;20098;-78
2022/07/21 01:48:56;;;;;;;8.05;4.38;;;;;;;17.30;96.01;100479.41;5009314;28;20040;-78
2022/07/21 01:51:22;;;;;;;;;;;;;;;17.27;96.06;100487.59;5009748;28;20113;-78
2022/07/21 01:53:47;;;;;;;7.30;4.00;;;;;;;17.22;95.89;100487.94;5009267;28;19920;-78
2022/07/21 01:56:12;;;;;;;;;;;;;;;17.16;96.61;100483.91;5009600;28;20121;-78
2022/07/21 01:58:38;;;;;;;9.60;4.37;;;;;;;17.19;96.40;100477.66;5009511;28;19983;-76
2022/07/21 02:01:03;;;;;;;;;;;;;;;17.13;96.11;100478.00;5013369;28;20280;-77
2022/07/21 02:03:28;;;;;;;10.50;4.90;;;;;;;17.10;96.73;100475.97;5012638;28;20025;-77
2022/07/21 02:06:00;;;;;;;;;;;;;;;17.03;95.62;100477.81;5012980;28;20415;-77
2022/07/21 02:08:26;;;;;;;8.35;3.53;;;;;;;16.92;96.26;100476.84;5012549;28;19913;-75
2022/07/21 02:10:51;;;;;;;7.30;2.95;;;;;;;16.83;96.07;100477.91;5012507;28;20128;-76
2022/07/21 02:13:16;;;;;;;;;;;;;;;16.84;96.55;100476.75;5012743;28;20044;-76
2022/07/21 02:15:42;;;;;;;8.48;3.50;;;;;;;16.84;96.64;100487.75;5012356;28;19921;-76
2022/07/21 02:18:07;;;;;;;;;;;;;;;16.84;97.44;100479.50;5012369;28;20117;-76
2022/07/21 02:20:32;;;;;;;9.50;3.57;;;;;;;16.81;97.33;100487.69;5012408;28;19913;-76
2022/07/21 02:22:57;;;;;;;8.02;3.88;;;;;;;16.80;97.63;100483.34;5012640;28;20338;-77
2022/07/21 02:25:23;;;;;;;;;;;;;;;16.84;97.91;100475.94;5012611;28;20396;-77
2022/07/21 02:27:48;;;;;;;7.25;3.55;;;;;;;16.79;97.94;100479.78;5012276;28;19920;-77
2022/07/21 02:30:13;;;;;;;;;;;;;;;16.79;98.05;100473.50;5012910;28;20132;-76
2022/07/21 02:32:39;;;;;;;9.32;4.30;;;;;;;16.81;98.41;100483.00;5012469;28;19921;-76
2022/07/21 02:35:04;;;;;;;;;;;;;;;16.93;98.38;100476.47;5012835;28;20037;-76
2022/07/21 02:37:30;;;;;;;9.00;4.32;;;;;;;16.80;98.30;100477.84;5012214;28;20274;-76
2022/07/21 02:39:55;;;;;;;;;;;;;;;17.01;97.78;100469.16;5012493;28;20041;-76
2022/07/21 02:42:20;;;;;;;9.20;3.80;;;;;;;16.89;98.13;100464.63;5011833;28;20296;-76
2022/07/21 02:44:46;;;;;;;9.20;4.65;;;;;;;16.80;98.29;100470.41;5010997;28;20616;-76
2022/07/21 02:47:11;;;;;;;;;;;;;;;16.77;98.20;100459.31;5012482;28;20483;-76
2022/07/21 02:49:37;;;;;;;8.57;4.15;;;;;;;16.68;98.46;100456.03;5011767;28;20272;-78
2022/07/21 02:52:02;;;;;;;10.55;4.32;;;;;;;16.65;98.60;100462.25;5011869;28;20396;-76
2022/07/21 02:54:27;;;;;;;;;;;;;;;16.61;98.71;100450.38;5012353;28;20029;-76
2022/07/21 02:56:53;;;;;;;7.57;3.73;;;;;;;16.62;98.79;100460.22;5011802;28;19967;-75
2022/07/21 02:59:18;;;;;;;;;;;;;;;16.61;99.16;100458.63;5012312;28;20107;-76
2022/07/21 03:01:43;;;;;;;7.60;3.53;;;;;;;16.64;98.95;100466.16;5011442;28;19917;-76
2022/07/21 03:04:09;;;;;;;;;;;;;;;16.60;99.25;100473.53;5012313;28;20050;-76
2022/07/21 03:06:34;;;;;;;7.25;3.65;;;;;;;16.64;99.46;100461.44;5011410;28;19909;-76
2022/07/21 03:08:59;;;;;;;;;;;;;;;16.66;99.39;100464.63;5012111;28;20042;-76
2022/07/21 03:11:25;;;;;;;9.37;4.33;;;;;;;16.73;99.43;100462.00;5011720;28;19909;-75
2022/07/21 03:13:50;;;;;;;8.48;4.20;;;;;;;16.66;99.48;100458.34;5011843;28;20257;-75
2022/07/21 03:16:15;;;;;;;;;;;;;;;16.76;100.00;100466.78;5011646;28;20173;-75
2022/07/21 03:18:41;;;;;;;9.23;4.60;;;;;;;16.65;99.66;100460.28;5011241;28;20213;-75
2022/07/21 03:21:06;;;;;;;;;;;;;;;16.61;99.92;100466.88;5011888;28;20371;-75
2022/07/21 03:23:32;;;;;;;9.68;4.45;;;;;;;16.83;99.66;100455.13;5011425;28;20366;-75
2022/07/21 03:25:57;;;;;;;9.68;4.47;;;;;;;16.70;99.55;100451.75;5011560;28;20436;-75
2022/07/21 03:28:22;;;;;;;;;;;;;;;16.62;99.52;100447.25;5011486;28;20050;-76
2022/07/21 03:30:48;;;;;;;10.90;4.90;;;;;;;16.67;99.44;100437.97;5011654;28;19963;-76
2022/07/21 03:33:13;;;;;;;;;;;;;;;16.57;99.77;100438.53;5011648;28;20104;-75
2022/07/21 03:35:38;;;;;;;9.70;4.90;;;;;;;16.58;99.62;100432.66;5011303;28;19960;-75
2022/07/21 03:38:04;;;;;;;;;;;;;;;16.59;99.96;100445.25;5011493;28;20277;-75
2022/07/21 03:40:33;;;;;;;9.57;4.95;;;;;;;16.62;99.71;100439.00;5011200;28;20420;-74
2022/07/21 03:43:01;;;;;;;11.20;4.60;;;;;;;16.52;99.64;100440.44;5010989;28;20034;-75
2022/07/21 03:45:29;;;;;;;10.13;4.60;;;;;;;16.50;99.52;100437.25;5010804;28;20063;-75
2022/07/21 03:47:56;;;;;;;9.75;4.68;;;;;;;16.49;99.99;100437.63;5009761;28;20461;-74
2022/07/21 03:50:21;;;;;;;9.00;4.47;;;;;;;16.58;99.71;100429.13;5010799;28;20064;-74
2022/07/21 03:52:47;;;;;;;11.82;4.60;;;;;;;16.58;99.47;100438.16;5009743;28;20073;-74
2022/07/21 03:55:14;;;;;;;;;;;;;;;16.58;99.29;100429.13;5011344;28;20040;-75
2022/07/21 03:57:46;;;;;;;9.85;4.18;;;;;;;16.59;99.73;100422.47;5010359;28;20352;-74
2022/07/21 04:00:24;;;;;;;11.07;4.97;;;;;;;16.54;99.77;100415.31;5011190;28;20383;-75
2022/07/21 04:02:49;;;;;;;13.50;5.72;;;;;;;16.54;99.89;100407.09;5010568;28;20095;-75
2022/07/21 04:05:17;;;;;;;11.25;5.50;;;;;;;16.57;99.70;100403.59;5010426;28;20029;-75
2022/07/21 04:07:45;;;;;;;11.20;5.22;;;;;;;16.71;100.00;100395.59;5010707;28;20413;-75
2022/07/21 04:10:12;;;;;;;13.48;5.85;;;;;;;16.65;99.55;100388.81;5010861;28;20034;-75
2022/07/21 04:12:38;;;;;;;18.55;7.10;;;;;;;16.67;99.79;100385.72;5010342;28;20034;-75
2022/07/21 04:15:05;;;;;;;13.02;6.35;;;;;;;16.67;100.00;100385.72;5010673;28;20049;-75
2022/07/21 04:17:31;;;;;;;12.93;6.85;;;;;;;16.64;99.81;100383.69;5010076;28;20396;-74
2022/07/21 04:19:56;;;;;;;12.52;6.38;;;;;;;16.65;99.57;100386.06;5010595;28;20030;-75
2022/07/21 04:22:22;;;;;;;15.25;6.78;;;;;;;16.68;99.64;100382.59;5009746;28;20042;-74
2022/07/21 04:24:47;;;;;;;;;;;;;;;16.69;99.92;100386.94;5010978;28;20159;-74
2022/07/21 04:27:12;;;;;;;14.37;5.97;;;;;;;16.66;99.52;100373.91;5010301;28;19910;-74
2022/07/21 04:29:37;;;;;;;;;;;;;;;16.70;99.68;100377.53;5010587;28;20034;-75
2022/07/21 04:32:03;;;;;;;14.80;7.17;;;;;;;16.72;100.00;100388.94;5010401;28;19913;-75
2022/07/21 04:34:28;;;;;;;;;;;;;;;16.78;99.90;100392.94;5010352;28;20313;-76
2022/07/21 04:36:54;;;;;;;15.40;7.55;;;;;;;16.80;99.65;100400.84;5009893;28;19963;-75
2022/07/21 04:39:19;;;;;;;;;;;;;;;16.89;99.67;100395.88;5010448;28;20046;-75
2022/07/21 04:41:45;;;;;;;14.52;6.90;;;;;;;16.99;99.05;100395.25;5009901;28;19916;-75
2022/07/21 04:44:10;;;;;;;18.15;8.05;;;;;;;16.98;99.14;100393.66;5010150;28;20117;-75
2022/07/21 04:46:35;;;;;;;;;;;;;;;17.00;99.20;100396.03;5010261;28;20038;-75
2022/07/21 04:49:01;;;;;;;14.40;7.47;;;;;;;16.97;99.54;100394.81;5009760;28;19920;-75
2022/07/21 04:51:26;;;;;;;;;;;;;;;16.98;99.59;100401.91;5010289;28;20054;-76
2022/07/21 04:53:51;;;;;;;18.98;8.40;;;;;;;16.98;99.08;100395.63;5009511;28;20255;-75
2022/07/21 04:56:16;;;;;;;;;;;;;;;17.05;98.72;100393.75;5010202;28;20034;-76
2022/07/21 04:58:42;;;;;;;16.75;8.10;;;;;;;17.07;98.64;100388.66;5009853;28;19924;-76
2022/07/21 05:01:07;;;;;;;;;;;;;;;17.11;98.64;100397.75;5010003;28;20030;-77
2022/07/21 05:03:32;;;;;;;15.77;7.63;;;;;;;17.13;98.40;100400.13;5009893;28;19921;-75
2022/07/21 05:05:57;;;;;;;;;;;;;;;17.12;98.36;100396.59;5010365;28;20347;-76
2022/07/21 05:08:26;;;;;;;15.83;7.80;;;;;;;17.10;98.54;100401.69;5009505;28;19917;-75
2022/07/21 05:10:51;;;;;;;14.52;7.35;;;;;;;17.20;97.95;100403.00;5009875;28;20041;-76
2022/07/21 05:13:16;;;;;;;;;;;;;;;17.19;97.87;100406.13;5009821;28;20041;-76
2022/07/21 05:15:42;;;;;;;;;;;;;;;17.14;98.25;100404.50;5009887;28;19967;-76
2022/07/21 05:18:07;;;;;;;;;;;;;;;17.19;98.13;100412.41;5010320;28;19964;-76
2022/07/21 05:20:32;;;;;;;;;;;;;;;17.18;98.24;100413.59;5010068;28;20015;-78
2022/07/21 05:22:57;;;;;;;;;;;;;;;17.20;98.08;100422.25;5009865;28;19920;-77
2022/07/21 05:25:23;;;;;;;;;;;;;;;17.36;97.77;100422.09;5010284;28;19913;-76
2022/07/21 05:27:48;;;;;;;;;;;;;;;17.33;97.55;100420.09;5009866;28;20111;-77
2022/07/21 05:30:13;;;;;;;;;;;;;;;17.35;97.15;100431.50;5010051;28;19914;-78
2022/07/21 05:32:38;;;;;;;;;;;;;;;17.33;97.50;100417.34;5009300;28;19933;-77
2022/07/21 05:35:08;;;;;;;;;;;;;;;17.40;96.99;100420.97;5013575;28;20267;-78
2022/07/21 05:37:33;;;;;;;;;;;;;;;17.43;97.34;100427.69;5013444;28;19913;-79
2022/07/21 05:39:58;;;;;;;;;;;;;;;17.49;97.28;100430.91;5013657;28;20397;-78
2022/07/21 05:42:24;;;;;;;;;;;;;;;17.52;96.35;100419.94;5013216;28;19942;-78
2022/07/21 05:44:49;;;;;;;;;;;;;;;17.51;96.91;100421.09;5013196;28;19925;-79
2022/07/21 05:47:14;;;;;;;;;;;;;;;17.64;96.65;100427.19;5013540;28;19920;-80
2022/07/21 05:49:39;;;;;;;;;;;;;;;17.55;95.74;100423.91;5013172;28;20368;-78
2022/07/21 05:52:05;;;;;;;;;;;;;;;17.62;95.30;100427.53;5012982;28;19996;-82
2022/07/21 05:54:30;;;;;;;;;;;;;;;17.63;95.50;100411.78;5013031;28;19923;-79
2022/07/21 05:56:55;;;;;;;;;;;;;;;17.64;94.81;100422.47;5012964;28;20306;-77
2022/07/21 05:59:21;;;;;;;;;;;;;;;17.77;94.35;100411.22;5013066;28;20310;-78
2022/07/21 06:01:46;;;;;;;;;;;;;;;17.78;94.66;100416.34;5013583;28;19956;-78
2022/07/21 06:04:11;;;;;;;;;;;;;;;17.74;95.27;100416.31;5013172;28;19970;-78
2022/07/21 06:06:36;;;;;;;;;;;;;;;17.78;95.16;100418.28;5012669;28;20368;-79
2022/07/21 06:09:02;;;;;;;;;;;;;;;17.78;94.86;100413.59;5012975;28;19927;-78
2022/07/21 06:11:27;;;;;;;;;;;;;;;17.88;94.79;100420.41;5012329;28;20004;-79
2022/07/21 06:13:52;;;;;;;;;;;;;;;17.95;94.96;100421.25;5012696;28;19955;-78
2022/07/21 06:16:18;;;;;;;;;;;;;;;17.97;93.95;100426.38;5012127;28;20269;-80
2022/07/21 06:18:43;;;;;;;;;;;;;;;18.11;93.58;100423.00;5012516;28;19913;-77
2022/07/21 06:21:08;;;;;;;;;;;;;;;18.14;93.09;100433.25;5012446;28;19936;-80
2022/07/21 06:23:33;;;;;;;;;;;;;;;18.14;93.00;100434.06;5012359;28;20284;-81
2022/07/21 06:25:58;;;;;;;;;;;;;;;18.26;92.75;100430.22;5012165;28;19924;-80
2022/07/21 06:28:24;;;;;;;;;;;;;;;18.24;92.01;100433.38;5012111;28;19920;-83
2022/07/21 06:30:50;;;;;;;;;;;;;;;18.12;92.24;100436.38;5012403;28;19917;-77
2022/07/21 06:33:15;;;;;;;;;;;;;;;18.22;92.17;100438.47;5012577;28;20253;-82
2022/07/21 06:35:41;;;;;;;;;;;;;;;18.21;91.78;100439.66;5012791;28;19913;-79
2022/07/21 06:38:06;;;;;;;;;;;;;;;18.25;91.54;100432.19;5012270;28;19974;-82
2022/07/21 06:40:31;;;;;;;;;;;;;;;18.27;91.95;100432.59;5011651;28;19918;-81
2022/07/21 06:42:56;;;;;;;;;;;;;;;18.32;91.42;100428.75;5011957;28;19913;-82
2022/07/21 06:45:22;;;;;;;;;;;;;;;18.28;91.42;100428.69;5012403;28;20020;-84
2022/07/21 06:47:48;;;;;;;;;;;;;;;18.29;91.18;100432.22;5012275;28;20016;-84
2022/07/21 06:50:13;;;;;;;;;;;;;;;18.32;90.88;100431.50;5012249;28;19953;-84
2022/07/21 06:52:38;;;;;;;;;;;;;;;18.40;90.71;100429.59;5012226;28;20305;-83
2022/07/21 06:55:05;;;;;;;;;;;;;;;18.53;89.20;100430.88;5011762;28;20012;-82
2022/07/21 06:57:30;;;;;;;;;;;;;;;18.71;89.25;100437.38;5011751;28;20479;-83
2022/07/21 06:59:55;;;;;;;;;;;;;;;18.81;88.81;100430.34;5011906;28;20016;-85
2022/07/21 07:02:20;;;;;;;;;;;;;;;19.06;87.20;100436.06;5012182;28;19952;-80
2022/07/21 07:04:46;;;;;;;;;;;;;;;19.38;85.31;100431.50;5011806;28;19917;-83
2022/07/21 07:07:11;;;;;;;;;;;;;;;19.45;84.89;100431.53;5012398;28;20264;-83
2022/07/21 07:09:36;;;;;;;;;;;;;;;19.90;83.74;100437.69;5011839;28;19913;-83
2022/07/21 07:12:05;;;;;;;;;;;;;;;20.12;81.70;100439.31;5011898;28;19953;-83
2022/07/21 07:14:30;;;;;;;;;;;;;;;19.82;82.12;100436.88;5012153;28;19914;-80
2022/07/21 07:16:56;;;;;;;;;;;;;;;19.71;81.92;100441.56;5012168;28;20663;-86
2022/07/21 07:19:21;;;;;;;;;;;;;;;19.51;81.29;100448.56;5012232;28;19913;-82
2022/07/21 07:21:47;;;;;;;;;;;;;;;19.47;83.00;100453.25;5012235;28;20283;-86
2022/07/21 07:24:12;;;;;;;;;;;;;;;19.57;83.17;100440.72;5012168;28;20279;-81
2022/07/21 07:26:37;;;;;;;;;;;;;;;19.45;83.68;100450.88;5014907;28;20352;-90
2022/07/21 07:29:02;;;;;;;;;;;;;;;19.29;82.91;100453.13;5017056;28;20256;-81
2022/07/21 07:31:28;;;;;;;;;;;;;;;19.21;83.43;100459.81;5018381;28;20097;-87
2022/07/21 07:33:56;;;;;;;;;;;;;;;19.14;84.23;100457.78;5015642;28;20427;-88
2022/07/21 07:36:21;;;;;;;;;;;;;;;19.13;83.57;100452.66;5014824;28;19913;-91
2022/07/21 07:38:48;;;;;;;;;;;;;;;19.21;83.30;100449.56;5017663;28;19913;-86
2022/07/21 07:41:13;;;;;;;;;;;;;;;19.32;83.00;100444.13;5017002;28;20012;-91
2022/07/21 07:43:38;;;;;;;;;;;;;;;19.51;82.31;100438.28;5012889;28;19954;-85
2022/07/21 07:46:04;;;;;;;;;;;;;;;19.81;81.57;100437.25;5012953;28;19920;-85
2022/07/21 07:48:31;;;;;;;;;;;;;;;20.12;80.89;100433.00;5012061;28;19918;-84
2022/07/21 07:54:00;;;;;;;;;;;;;;;19.98;80.19;100438.47;5013194;28;20371;-84
2022/07/21 07:56:25;;;;;;;;;;;;;;;20.17;80.01;100448.44;5010762;28;19952;-88
2022/07/21 07:58:50;;;;;;;;;;;;;;;20.03;79.46;100446.41;5012327;28;19967;-81
2022/07/21 08:01:16;;;;;;;;;;;;;;;19.91;79.14;100453.06;5011431;28;19917;-88
2022/07/21 08:03:41;;;;;;;;;;;;;;;19.92;78.58;100443.59;5013135;28;19950;-85
2022/07/21 08:06:07;;;;;;;;;;;;;;;20.05;77.12;100450.38;5014119;28;19960;-85
2022/07/21 08:08:33;;;;;;;;;;;;;;;20.38;77.14;100442.94;5011105;28;19917;-83
2022/07/21 08:10:58;;;;;;;;;;;;;;;20.58;75.97;100446.13;5011432;28;19913;-84
2022/07/21 08:13:23;;;;;;;;;;;;;;;20.58;75.59;100446.91;5011334;28;19913;-83
2022/07/21 08:15:49;;;;;;;;;;;;;;;20.56;75.63;100451.28;5010924;28;20213;-84
2022/07/21 08:18:14;;;;;;;;;;;;;;;20.77;75.52;100445.72;5011328;28;19978;-86
2022/07/21 08:20:40;;;;;;;;;;;;;;;20.81;75.39;100446.50;5010036;28;20084;-84
2022/07/21 08:23:06;;;;;;;;;;;;;;;20.80;74.28;100442.16;5011175;28;19924;-84
2022/07/21 08:25:31;;;;;;;;;;;;;;;20.58;74.21;100446.13;5011727;28;19914;-83
2022/07/21 08:27:57;;;;;;;;;;;;;;;20.77;74.63;100447.72;5010633;28;19945;-82
2022/07/21 08:30:22;;;;;;;;;;;;;;;20.72;74.21;100438.63;5011419;28;19917;-81
2022/07/21 08:32:47;;;;;;;;;;;;;;;20.67;73.78;100443.78;5010953;28;19921;-81
2022/07/21 08:35:13;;;;;;;;;;;;;;;20.86;74.22;100448.13;5010893;28;19913;-83
2022/07/21 08:37:39;;;;;;;;;;;;;;;20.82;73.39;100459.16;5010211;28;19913;-85
2022/07/21 08:40:05;;;;;;;;;;;;;;;20.68;72.48;100453.66;5011509;28;20007;-83
2022/07/21 08:42:31;;;;;;;;;;;;;;;20.67;72.08;100455.63;5011197;28;19920;-83
2022/07/21 08:44:56;;;;;;;;;;;;;;;20.54;72.89;100454.44;5010505;28;19914;-81
2022/07/21 08:47:22;;;;;;;;;;;;;;;20.41;73.53;100454.00;5010630;28;20458;-82
2022/07/21 08:49:47;;;;;;;;;;;;;;;20.34;73.03;100453.19;5010407;28;20065;-82
2022/07/21 08:52:13;;;;;;;;;;;;;;;20.35;72.67;100457.53;5009233;28;19963;-82
2022/07/21 08:54:38;;;;;;;;;;;;;;;20.31;71.84;100451.97;5010954;28;19913;-84
2022/07/21 08:57:03;;;;;;;;;;;;;;;20.43;71.77;100453.63;5010284;28;20228;-84
2022/07/21 08:59:28;;;;;;;;;;;;;;;20.55;71.40;100455.22;5008859;28;20012;-83
2022/07/21 09:01:54;;;;;;;;;;;;;;;20.79;71.10;100445.34;5009034;28;19913;-82
2022/07/21 09:04:23;;;;;;;;;;;;;;;21.03;70.59;100448.09;5010392;28;19921;-85
2022/07/21 09:06:52;;;;;;;;;;;;;;;21.14;70.20;100441.72;5010421;28;19920;-84
2022/07/21 09:09:19;;;;;;;;;;;;;;;21.14;70.63;100441.72;5010136;28;20048;-84
2022/07/21 09:11:45;;;;;;;;;;;;;;;21.10;70.41;100441.75;5010606;28;19944;-84
2022/07/21 09:14:11;;;;;;;;;;;;;;;21.10;70.73;100441.75;5008978;28;20283;-83
2022/07/21 09:16:39;;;;;;;;;;;;;;;21.14;70.07;100447.28;5010259;28;19918;-84
2022/07/21 09:19:06;;;;;;;;;;;;;;;21.08;69.79;100446.09;5009998;28;20328;-84
2022/07/21 09:21:32;;;;;;;;;;;;;;;20.93;70.33;100453.63;5008712;28;19921;-84
2022/07/21 09:24:16;;;;;;;;;;;;;;;20.90;70.23;100446.13;5009934;28;20008;-84
2022/07/21 09:26:56;;;;;;;;;;;;;;;20.88;70.06;100440.19;5009767;28;19914;-85
2022/07/21 09:29:21;;;;;;;;;;;;;;;20.94;69.60;100444.16;5009099;28;19913;-84
2022/07/21 09:31:47;;;;;;;;;;;;;;;20.97;70.14;100448.88;5011411;28;20398;-84
2022/07/21 09:34:13;;;;;;;;;;;;;;;20.86;69.64;100443.38;5011267;28;19917;-84
2022/07/21 09:36:39;;;;;;;;;;;;;;;21.00;70.20;100448.09;5010722;28;19928;-85
2022/07/21 09:39:04;;;;;;;;;;;;;;;21.16;69.52;100428.28;5009882;28;19913;-83
2022/07/21 09:41:30;;;;;;;;;;;;;;;21.27;69.19;100449.25;5008378;28;19917;-84
2022/07/21 09:43:56;;;;;;;;;;;;;;;21.26;69.54;100447.69;5010125;28;19913;-85
2022/07/21 09:46:30;;;;;;;;;;;;;;;21.34;68.50;100444.91;5010576;28;19921;-86
2022/07/21 09:48:57;;;;;;;;;;;;;;;21.28;68.97;100447.28;5010760;28;19917;-84
2022/07/21 09:51:28;;;;;;;;;;;;;;;21.39;68.94;100450.03;5010389;28;19982;-84
2022/07/21 09:53:53;;;;;;;;;;;;;;;21.23;68.06;100448.47;5011499;28;20012;-83
2022/07/21 09:56:19;;;;;;;;;;;;;;;21.20;67.75;100448.47;5010721;28;20002;-87
2022/07/21 09:58:49;;;;;;;;;;;;;;;21.16;67.67;100445.69;5010133;28;19913;-88
2022/07/21 10:01:14;;;;;;;;;;;;;;;21.10;67.36;100450.06;5010759;28;19974;-87
2022/07/21 10:03:42;;;;;;;;;;;;;;;21.17;67.65;100450.06;5011532;28;19917;-88
2022/07/21 10:06:08;;;;;;;;;;;;;;;21.22;67.64;100449.66;5010743;28;19993;-87
2022/07/21 10:08:33;;;;;;;;;;;;;;;21.14;65.78;100452.81;5011207;28;19949;-82
2022/07/21 10:10:59;;;;;;;;;;;;;;;21.21;64.89;100450.06;5010932;28;19913;-84
2022/07/21 10:13:24;;;;;;;;;;;;;;;21.31;64.13;100450.03;5010435;28;19913;-82
2022/07/21 10:15:50;;;;;;;;;;;;;;;21.39;64.51;100453.59;5010169;28;19957;-84
2022/07/21 10:18:19;;;;;;;;;;;;;;;21.51;64.72;100457.91;5010094;28;20012;-88
2022/07/21 10:20:48;;;;;;;;;;;;;;;21.43;65.27;100459.13;5013039;28;19952;-81
2022/07/21 10:23:35;;;;;;;;;;;;;;;21.42;64.70;100465.84;5014546;28;19918;-84
2022/07/21 10:26:02;;;;;;;;;;;;;;;21.22;65.26;100468.25;5012258;28;19917;-83
2022/07/21 10:28:28;;;;;;;;;;;;;;;21.08;65.74;100469.03;5013232;28;19913;-84
2022/07/21 10:30:55;;;;;;;;;;;;;;;20.98;66.16;100461.53;5013284;28;19939;-81
2022/07/21 10:33:21;;;;;;;;;;;;;;;20.94;66.35;100458.78;5012005;28;19921;-85
2022/07/21 10:35:51;;;;;;;;;;;;;;;20.86;66.72;100464.72;5012924;28;19920;-83
2022/07/21 10:38:26;;;;;;;;;;;;;;;20.76;67.90;100476.56;5011836;28;20011;-81
2022/07/21 10:40:52;;;;;;;;;;;;;;;20.71;68.66;100473.03;5012836;28;19971;-81
2022/07/21 10:43:23;;;;;;;;;;;;;;;20.60;69.89;100474.97;5012765;28;19971;-82
2022/07/21 10:45:48;;;;;;;;;;;;;;;20.36;72.55;100481.25;5012932;28;20008;-82
2022/07/21 10:48:32;;;;;;;;;;;;;;;20.04;75.39;100486.69;5012382;28;20015;-81
2022/07/21 10:50:58;;;;;;;;;;;;;;;19.78;77.66;100485.00;5012660;28;19977;-81
2022/07/21 10:53:23;;;;;;;;;;;;;;;19.59;79.45;100485.28;5011553;28;20400;-81
2022/07/21 10:55:49;;;;;;;;;;;;;;;19.50;80.20;100491.94;5012333;28;19940;-80
2022/07/21 10:58:30;;;;;;;;;;;;;;;19.35;80.61;100490.28;5012339;28;19913;-84
2022/07/21 11:00:56;;;;;;;;;;;;;;;19.25;81.96;100485.47;5011192;28;19920;-81
2022/07/21 11:03:21;;;;;;;;;;;;;;;19.10;82.77;100489.28;5012470;28;19914;-83
2022/07/21 11:06:12;;;;;;;;;;;;;;;19.05;83.61;100497.94;5011707;28;20016;-82
2022/07/21 11:08:38;;;;;;;;;;;;;;;19.07;83.82;100490.06;4981181;28;19962;-81
2022/07/21 11:11:07;;;;;;;;;;;;;;;19.14;84.25;100490.09;5012046;28;19922;-81
2022/07/21 11:13:52;;;;;;;;;;;;;;;18.86;84.89;100483.22;5012240;28;19921;-85
2022/07/21 11:16:17;;;;;;;;;;;;;;;18.79;85.84;100494.16;5011469;28;19921;-81
2022/07/21 11:18:43;;;;;;;;;;;;;;;18.77;86.13;100487.47;5011524;28;19936;-83
2022/07/21 11:21:10;;;;;;;;;;;;;;;18.87;86.12;100479.28;5011652;28;20376;-82
2022/07/21 11:23:40;;;;;;;;;;;;;;;18.99;86.15;100489.22;5010138;28;19921;-83
2022/07/21 11:26:05;;;;;;;;;;;;;;;18.85;86.61;100489.91;5012231;28;20356;-82
2022/07/21 11:28:31;;;;;;;;;;;;;;;18.71;87.02;100489.78;5011531;28;19943;-82
2022/07/21 11:31:05;;;;;;;;;;;;;;;18.64;87.33;100489.69;5011431;28;19945;-86
2022/07/21 11:33:30;;;;;;;;;;;;;;;18.56;87.63;100486.06;5012909;28;19932;-81
2022/07/21 11:35:56;;;;;;;;;;;;;;;18.55;88.23;100480.94;5010487;28;19913;-81
2022/07/21 11:38:21;;;;;;;;;;;;;;;18.54;88.07;100477.38;5012569;28;20016;-76
2022/07/21 11:40:46;;;;;;;;;;;;;;;18.49;88.69;100477.75;5011551;28;20235;-77
2022/07/21 11:43:11;;;;;;;;;;;;;;;18.51;88.83;100485.63;5011526;28;19921;-78
2022/07/21 11:45:36;;;;;;;;;;;;;;;18.61;87.96;100490.44;5010030;28;19914;-76
2022/07/21 11:48:02;;;;;;;;;;;;;;;18.44;89.04;100480.03;5011012;28;19925;-77
2022/07/21 11:50:27;;;;;;;;;;;;;;;18.39;89.87;100485.91;5011180;28;19921;-77
2022/07/21 11:52:53;;;;;;;;;;;;;;;18.41;90.02;100487.09;5010992;28;19914;-78
2022/07/21 11:55:18;;;;;;;;;;;;;;;18.30;90.62;100478.72;5010863;28;19917;-77
2022/07/21 11:57:45;;;;;;;;;;;;;;;18.38;91.14;100489.81;5010987;28;20227;-77
2022/07/21 12:00:11;;;;;;;;;;;;;;;18.40;91.12;100481.97;5010895;28;20333;-77
2022/07/21 12:02:36;;;;;;;;;;;;;;;18.38;91.17;100482.34;5010753;28;19913;-77
2022/07/21 12:05:06;;;;;;;;;;;;;;;18.33;91.23;100474.41;5011023;28;20427;-77
2022/07/21 12:07:34;;;;;;;;;;;;;;;18.31;91.98;100480.31;5010575;28;20340;-76
2022/07/21 12:10:01;;;;;;;;;;;;;;;18.43;92.22;100492.22;5011029;28;20002;-77
2022/07/21 12:12:30;;;;;;;;;;;;;;;18.29;92.54;100484.59;5010475;28;19920;-78
2022/07/21 12:14:55;;;;;;;;;;;;;;;18.31;92.92;100476.78;5010899;28;20000;-76